Azul, Argentina
Current Conditions -  °F | °C
As of 6:00 AM on Wednesday 28 Jan 2015 (Local Time) from SAZM Reporting Station
Broken Clouds Broken Clouds  
Wind Chill: 68°   Ceiling: 4500
Heat Index: 68°   Visibility: 6mi
Dew Point: 55°   Wind: 12mph
Humidity: 64%   Direction: 140°SE
Pressure: 29.85"   Gusts: NA
Location:  36.78°S, 59.87°W
Report Text: SAZM 280900Z 14010KT 9999 SCT025 BKN04520/13 Q1011
Loading
Personal Weather Stations






























Interactive Weather Map New forecast layout! Learn more

10-Day Weather Forecast

Advertisements
Track Severe Weather on mobile